sensor_id;sensor_type;location;lat;lon;timestamp;P1;durP1;ratioP1;P2;durP2;ratioP2
36691;SDS011;22678;52.052;4.242;2024-02-21T00:00:43;7.28;;;1.75;;
36691;SDS011;22678;52.052;4.242;2024-02-21T00:03:09;24.73;;;2.63;;
36691;SDS011;22678;52.052;4.242;2024-02-21T00:05:34;13.75;;;1.33;;
36691;SDS011;22678;52.052;4.242;2024-02-21T00:07:59;21.50;;;2.65;;
36691;SDS011;22678;52.052;4.242;2024-02-21T00:10:25;10.85;;;2.55;;
36691;SDS011;22678;52.052;4.242;2024-02-21T00:12:51;14.00;;;3.05;;
36691;SDS011;22678;52.052;4.242;2024-02-21T00:15:17;19.15;;;2.47;;
36691;SDS011;22678;52.052;4.242;2024-02-21T00:17:43;11.25;;;1.90;;
36691;SDS011;22678;52.052;4.242;2024-02-21T00:20:09;17.77;;;2.83;;
36691;SDS011;22678;52.052;4.242;2024-02-21T00:22:35;17.80;;;2.38;;
36691;SDS011;22678;52.052;4.242;2024-02-21T00:25:00;17.75;;;3.95;;
36691;SDS011;22678;52.052;4.242;2024-02-21T00:27:26;14.63;;;2.28;;
36691;SDS011;22678;52.052;4.242;2024-02-21T00:29:51;22.50;;;3.00;;
36691;SDS011;22678;52.052;4.242;2024-02-21T00:32:16;14.73;;;2.08;;
36691;SDS011;22678;52.052;4.242;2024-02-21T00:34:42;21.48;;;4.20;;
36691;SDS011;22678;52.052;4.242;2024-02-21T00:37:07;12.73;;;3.53;;
36691;SDS011;22678;52.052;4.242;2024-02-21T00:39:32;16.77;;;4.45;;
36691;SDS011;22678;52.052;4.242;2024-02-21T00:41:57;14.73;;;2.28;;
36691;SDS011;22678;52.052;4.242;2024-02-21T00:44:23;26.42;;;3.13;;
36691;SDS011;22678;52.052;4.242;2024-02-21T00:46:48;6.90;;;2.97;;
36691;SDS011;22678;52.052;4.242;2024-02-21T00:55:28;19.90;;;2.78;;
36691;SDS011;22678;52.052;4.242;2024-02-21T00:57:54;13.23;;;3.53;;
36691;SDS011;22678;52.052;4.242;2024-02-21T01:00:19;9.82;;;1.92;;
36691;SDS011;22678;52.052;4.242;2024-02-21T01:02:45;19.63;;;2.72;;
36691;SDS011;22678;52.052;4.242;2024-02-21T01:05:10;9.10;;;3.00;;
36691;SDS011;22678;52.052;4.242;2024-02-21T01:07:35;14.30;;;2.35;;
36691;SDS011;22678;52.052;4.242;2024-02-21T01:10:00;12.00;;;2.90;;
36691;SDS011;22678;52.052;4.242;2024-02-21T01:12:26;25.60;;;5.32;;
36691;SDS011;22678;52.052;4.242;2024-02-21T01:14:51;24.40;;;4.68;;
36691;SDS011;22678;52.052;4.242;2024-02-21T01:17:17;16.52;;;4.57;;
36691;SDS011;22678;52.052;4.242;2024-02-21T01:19:42;7.65;;;1.58;;
36691;SDS011;22678;52.052;4.242;2024-02-21T01:22:08;13.77;;;4.40;;
36691;SDS011;22678;52.052;4.242;2024-02-21T01:24:33;14.48;;;2.75;;
36691;SDS011;22678;52.052;4.242;2024-02-21T01:26:58;16.23;;;2.88;;
36691;SDS011;22678;52.052;4.242;2024-02-21T01:29:24;14.55;;;2.15;;
36691;SDS011;22678;52.052;4.242;2024-02-21T01:31:49;32.80;;;2.95;;
36691;SDS011;22678;52.052;4.242;2024-02-21T01:34:14;27.70;;;2.85;;
36691;SDS011;22678;52.052;4.242;2024-02-21T01:36:40;22.42;;;2.25;;
36691;SDS011;22678;52.052;4.242;2024-02-21T01:39:06;18.63;;;5.20;;
36691;SDS011;22678;52.052;4.242;2024-02-21T01:41:31;16.17;;;1.67;;
36691;SDS011;22678;52.052;4.242;2024-02-21T01:43:57;21.13;;;2.50;;
36691;SDS011;22678;52.052;4.242;2024-02-21T01:46:23;11.20;;;1.15;;
36691;SDS011;22678;52.052;4.242;2024-02-21T01:48:54;11.30;;;5.22;;
36691;SDS011;22678;52.052;4.242;2024-02-21T01:51:20;10.52;;;1.40;;
36691;SDS011;22678;52.052;4.242;2024-02-21T01:53:45;16.98;;;2.40;;
36691;SDS011;22678;52.052;4.242;2024-02-21T01:56:11;14.70;;;3.28;;
36691;SDS011;22678;52.052;4.242;2024-02-21T01:58:37;10.80;;;2.60;;
36691;SDS011;22678;52.052;4.242;2024-02-21T02:01:05;12.00;;;2.22;;
36691;SDS011;22678;52.052;4.242;2024-02-21T02:03:31;16.58;;;4.60;;
36691;SDS011;22678;52.052;4.242;2024-02-21T02:05:56;21.83;;;2.83;;
36691;SDS011;22678;52.052;4.242;2024-02-21T02:08:21;13.13;;;3.35;;
36691;SDS011;22678;52.052;4.242;2024-02-21T02:10:47;29.25;;;3.88;;
36691;SDS011;22678;52.052;4.242;2024-02-21T02:13:13;24.30;;;3.40;;
36691;SDS011;22678;52.052;4.242;2024-02-21T02:15:43;11.25;;;2.75;;
36691;SDS011;22678;52.052;4.242;2024-02-21T02:18:13;16.50;;;2.55;;
36691;SDS011;22678;52.052;4.242;2024-02-21T02:20:40;17.83;;;3.85;;
36691;SDS011;22678;52.052;4.242;2024-02-21T02:25:48;14.70;;;2.17;;
36691;SDS011;22678;52.052;4.242;2024-02-21T02:28:17;17.70;;;3.85;;
36691;SDS011;22678;52.052;4.242;2024-02-21T02:30:42;15.73;;;2.60;;
36691;SDS011;22678;52.052;4.242;2024-02-21T02:33:08;11.82;;;4.10;;
36691;SDS011;22678;52.052;4.242;2024-02-21T02:35:33;27.77;;;4.47;;
36691;SDS011;22678;52.052;4.242;2024-02-21T02:38:01;24.25;;;2.70;;
36691;SDS011;22678;52.052;4.242;2024-02-21T02:40:26;8.60;;;2.22;;
36691;SDS011;22678;52.052;4.242;2024-02-21T02:42:52;21.67;;;2.78;;
36691;SDS011;22678;52.052;4.242;2024-02-21T02:45:20;16.05;;;2.58;;
36691;SDS011;22678;52.052;4.242;2024-02-21T02:47:45;16.55;;;2.22;;
36691;SDS011;22678;52.052;4.242;2024-02-21T02:50:11;16.10;;;4.22;;
36691;SDS011;22678;52.052;4.242;2024-02-21T02:52:36;13.40;;;5.70;;
36691;SDS011;22678;52.052;4.242;2024-02-21T02:55:02;20.55;;;2.72;;
36691;SDS011;22678;52.052;4.242;2024-02-21T02:57:28;13.73;;;3.15;;
36691;SDS011;22678;52.052;4.242;2024-02-21T02:59:53;16.35;;;2.95;;
36691;SDS011;22678;52.052;4.242;2024-02-21T03:02:18;9.93;;;3.85;;
36691;SDS011;22678;52.052;4.242;2024-02-21T03:04:44;14.52;;;4.13;;
36691;SDS011;22678;52.052;4.242;2024-02-21T03:07:09;10.57;;;2.22;;
36691;SDS011;22678;52.052;4.242;2024-02-21T03:09:36;10.52;;;1.85;;
36691;SDS011;22678;52.052;4.242;2024-02-21T03:12:02;12.32;;;4.60;;
36691;SDS011;22678;52.052;4.242;2024-02-21T03:14:31;22.20;;;3.42;;
36691;SDS011;22678;52.052;4.242;2024-02-21T03:17:00;20.95;;;2.90;;
36691;SDS011;22678;52.052;4.242;2024-02-21T03:19:26;9.18;;;2.55;;
36691;SDS011;22678;52.052;4.242;2024-02-21T03:21:51;9.45;;;2.63;;
36691;SDS011;22678;52.052;4.242;2024-02-21T03:24:18;12.63;;;3.00;;
36691;SDS011;22678;52.052;4.242;2024-02-21T03:26:43;7.30;;;2.13;;
36691;SDS011;22678;52.052;4.242;2024-02-21T03:29:10;8.13;;;2.88;;
36691;SDS011;22678;52.052;4.242;2024-02-21T03:31:36;14.57;;;4.03;;
36691;SDS011;22678;52.052;4.242;2024-02-21T03:34:01;10.35;;;3.53;;
36691;SDS011;22678;52.052;4.242;2024-02-21T03:36:27;11.88;;;3.30;;
36691;SDS011;22678;52.052;4.242;2024-02-21T03:38:53;10.77;;;2.90;;
36691;SDS011;22678;52.052;4.242;2024-02-21T03:41:19;16.02;;;4.53;;
36691;SDS011;22678;52.052;4.242;2024-02-21T03:43:44;7.88;;;2.80;;
36691;SDS011;22678;52.052;4.242;2024-02-21T03:46:09;14.32;;;2.80;;
36691;SDS011;22678;52.052;4.242;2024-02-21T03:48:35;10.02;;;2.88;;
36691;SDS011;22678;52.052;4.242;2024-02-21T03:51:01;12.23;;;3.10;;
36691;SDS011;22678;52.052;4.242;2024-02-21T03:53:27;13.45;;;5.30;;
36691;SDS011;22678;52.052;4.242;2024-02-21T03:55:53;10.60;;;3.55;;
36691;SDS011;22678;52.052;4.242;2024-02-21T03:58:18;17.63;;;5.10;;
36691;SDS011;22678;52.052;4.242;2024-02-21T04:00:43;11.13;;;4.38;;
36691;SDS011;22678;52.052;4.242;2024-02-21T04:03:09;14.80;;;3.03;;
36691;SDS011;22678;52.052;4.242;2024-02-21T04:05:34;19.90;;;6.60;;
36691;SDS011;22678;52.052;4.242;2024-02-21T04:07:59;9.32;;;4.03;;
36691;SDS011;22678;52.052;4.242;2024-02-21T04:10:25;9.77;;;3.92;;
36691;SDS011;22678;52.052;4.242;2024-02-21T04:12:50;21.08;;;5.05;;
36691;SDS011;22678;52.052;4.242;2024-02-21T04:15:18;22.50;;;4.63;;
36691;SDS011;22678;52.052;4.242;2024-02-21T04:17:44;14.05;;;4.00;;
36691;SDS011;22678;52.052;4.242;2024-02-21T04:20:13;17.55;;;6.78;;
36691;SDS011;22678;52.052;4.242;2024-02-21T04:22:40;18.67;;;4.68;;
36691;SDS011;22678;52.052;4.242;2024-02-21T04:25:06;15.68;;;3.63;;
36691;SDS011;22678;52.052;4.242;2024-02-21T04:27:31;13.10;;;2.67;;
36691;SDS011;22678;52.052;4.242;2024-02-21T04:29:56;8.90;;;3.63;;
36691;SDS011;22678;52.052;4.242;2024-02-21T04:32:22;6.75;;;3.13;;
36691;SDS011;22678;52.052;4.242;2024-02-21T04:34:47;14.18;;;2.40;;
36691;SDS011;22678;52.052;4.242;2024-02-21T04:37:13;34.72;;;3.25;;
36691;SDS011;22678;52.052;4.242;2024-02-21T04:39:38;7.30;;;3.55;;
36691;SDS011;22678;52.052;4.242;2024-02-21T04:42:03;11.23;;;2.78;;
36691;SDS011;22678;52.052;4.242;2024-02-21T04:44:29;5.40;;;2.70;;
36691;SDS011;22678;52.052;4.242;2024-02-21T04:46:54;11.77;;;4.18;;
36691;SDS011;22678;52.052;4.242;2024-02-21T04:49:20;8.15;;;3.13;;
36691;SDS011;22678;52.052;4.242;2024-02-21T04:51:45;9.45;;;3.03;;
36691;SDS011;22678;52.052;4.242;2024-02-21T04:54:10;10.07;;;3.42;;
36691;SDS011;22678;52.052;4.242;2024-02-21T04:56:35;9.93;;;3.38;;
36691;SDS011;22678;52.052;4.242;2024-02-21T04:59:01;14.75;;;3.25;;
36691;SDS011;22678;52.052;4.242;2024-02-21T05:01:27;11.85;;;2.70;;
36691;SDS011;22678;52.052;4.242;2024-02-21T05:03:53;11.55;;;4.95;;
36691;SDS011;22678;52.052;4.242;2024-02-21T05:06:18;7.82;;;2.63;;
36691;SDS011;22678;52.052;4.242;2024-02-21T05:08:44;11.65;;;2.45;;
36691;SDS011;22678;52.052;4.242;2024-02-21T05:11:09;9.57;;;4.57;;
36691;SDS011;22678;52.052;4.242;2024-02-21T05:13:34;10.90;;;2.75;;
36691;SDS011;22678;52.052;4.242;2024-02-21T05:16:00;13.23;;;3.17;;
36691;SDS011;22678;52.052;4.242;2024-02-21T05:18:26;8.75;;;2.97;;
36691;SDS011;22678;52.052;4.242;2024-02-21T05:20:52;10.80;;;2.45;;
36691;SDS011;22678;52.052;4.242;2024-02-21T05:23:17;16.02;;;3.45;;
36691;SDS011;22678;52.052;4.242;2024-02-21T05:25:43;17.02;;;3.42;;
36691;SDS011;22678;52.052;4.242;2024-02-21T05:28:08;13.63;;;3.00;;
36691;SDS011;22678;52.052;4.242;2024-02-21T05:30:33;16.70;;;3.72;;
36691;SDS011;22678;52.052;4.242;2024-02-21T05:32:59;7.25;;;4.10;;
36691;SDS011;22678;52.052;4.242;2024-02-21T05:35:28;9.45;;;3.35;;
36691;SDS011;22678;52.052;4.242;2024-02-21T05:37:54;6.22;;;3.05;;
36691;SDS011;22678;52.052;4.242;2024-02-21T05:40:19;13.63;;;3.35;;
36691;SDS011;22678;52.052;4.242;2024-02-21T05:42:44;11.10;;;3.88;;
36691;SDS011;22678;52.052;4.242;2024-02-21T05:45:10;15.02;;;4.65;;
36691;SDS011;22678;52.052;4.242;2024-02-21T05:47:35;8.10;;;4.40;;
36691;SDS011;22678;52.052;4.242;2024-02-21T05:50:00;15.35;;;4.13;;
36691;SDS011;22678;52.052;4.242;2024-02-21T05:52:26;20.75;;;4.85;;
36691;SDS011;22678;52.052;4.242;2024-02-21T05:54:51;14.57;;;4.93;;
36691;SDS011;22678;52.052;4.242;2024-02-21T05:57:17;13.50;;;4.63;;
36691;SDS011;22678;52.052;4.242;2024-02-21T05:59:43;9.98;;;4.38;;
36691;SDS011;22678;52.052;4.242;2024-02-21T06:02:08;12.73;;;4.55;;
36691;SDS011;22678;52.052;4.242;2024-02-21T06:04:34;12.15;;;4.30;;
36691;SDS011;22678;52.052;4.242;2024-02-21T06:07:00;13.30;;;5.03;;
36691;SDS011;22678;52.052;4.242;2024-02-21T06:09:25;10.00;;;4.70;;
36691;SDS011;22678;52.052;4.242;2024-02-21T06:11:50;10.10;;;4.60;;
36691;SDS011;22678;52.052;4.242;2024-02-21T06:14:16;16.95;;;5.07;;
36691;SDS011;22678;52.052;4.242;2024-02-21T06:16:42;11.48;;;3.88;;
36691;SDS011;22678;52.052;4.242;2024-02-21T06:19:08;9.77;;;4.88;;
36691;SDS011;22678;52.052;4.242;2024-02-21T06:21:34;9.80;;;4.07;;
36691;SDS011;22678;52.052;4.242;2024-02-21T06:23:59;11.32;;;5.05;;
36691;SDS011;22678;52.052;4.242;2024-02-21T06:26:24;12.93;;;4.82;;
36691;SDS011;22678;52.052;4.242;2024-02-21T06:28:50;14.63;;;5.28;;
36691;SDS011;22678;52.052;4.242;2024-02-21T06:31:15;16.17;;;4.50;;
36691;SDS011;22678;52.052;4.242;2024-02-21T06:33:41;12.07;;;5.30;;
36691;SDS011;22678;52.052;4.242;2024-02-21T06:36:07;20.58;;;5.03;;
36691;SDS011;22678;52.052;4.242;2024-02-21T06:38:32;8.95;;;4.25;;
36691;SDS011;22678;52.052;4.242;2024-02-21T06:40:59;15.88;;;4.95;;
36691;SDS011;22678;52.052;4.242;2024-02-21T06:43:25;13.70;;;4.88;;
36691;SDS011;22678;52.052;4.242;2024-02-21T06:45:51;13.70;;;5.75;;
36691;SDS011;22678;52.052;4.242;2024-02-21T06:48:16;14.05;;;6.05;;
36691;SDS011;22678;52.052;4.242;2024-02-21T06:50:43;11.65;;;5.88;;
36691;SDS011;22678;52.052;4.242;2024-02-21T06:53:09;18.50;;;6.38;;
36691;SDS011;22678;52.052;4.242;2024-02-21T06:55:34;12.45;;;5.93;;
36691;SDS011;22678;52.052;4.242;2024-02-21T06:58:00;10.18;;;6.10;;
36691;SDS011;22678;52.052;4.242;2024-02-21T07:00:26;12.48;;;4.25;;
36691;SDS011;22678;52.052;4.242;2024-02-21T07:02:53;14.55;;;5.47;;
36691;SDS011;22678;52.052;4.242;2024-02-21T07:05:18;25.75;;;8.05;;
36691;SDS011;22678;52.052;4.242;2024-02-21T07:07:44;16.88;;;7.20;;
36691;SDS011;22678;52.052;4.242;2024-02-21T07:10:09;15.10;;;7.38;;
36691;SDS011;22678;52.052;4.242;2024-02-21T07:12:35;15.75;;;6.78;;
36691;SDS011;22678;52.052;4.242;2024-02-21T07:15:03;21.25;;;9.60;;
36691;SDS011;22678;52.052;4.242;2024-02-21T07:17:29;18.90;;;6.85;;
36691;SDS011;22678;52.052;4.242;2024-02-21T07:19:55;18.77;;;7.05;;
36691;SDS011;22678;52.052;4.242;2024-02-21T07:22:21;13.35;;;6.63;;
36691;SDS011;22678;52.052;4.242;2024-02-21T07:24:47;13.35;;;7.03;;
36691;SDS011;22678;52.052;4.242;2024-02-21T07:27:13;16.90;;;7.85;;
36691;SDS011;22678;52.052;4.242;2024-02-21T07:29:40;15.65;;;6.50;;
36691;SDS011;22678;52.052;4.242;2024-02-21T07:32:05;10.95;;;7.07;;
36691;SDS011;22678;52.052;4.242;2024-02-21T07:34:30;19.48;;;9.25;;
36691;SDS011;22678;52.052;4.242;2024-02-21T07:36:56;19.05;;;8.93;;
36691;SDS011;22678;52.052;4.242;2024-02-21T07:39:22;20.90;;;10.75;;
36691;SDS011;22678;52.052;4.242;2024-02-21T07:41:47;20.40;;;9.63;;
36691;SDS011;22678;52.052;4.242;2024-02-21T07:44:14;14.65;;;8.27;;
36691;SDS011;22678;52.052;4.242;2024-02-21T07:46:39;20.63;;;7.97;;
36691;SDS011;22678;52.052;4.242;2024-02-21T07:49:05;18.17;;;8.13;;
36691;SDS011;22678;52.052;4.242;2024-02-21T07:51:30;20.88;;;9.63;;
36691;SDS011;22678;52.052;4.242;2024-02-21T07:53:55;18.98;;;8.65;;
36691;SDS011;22678;52.052;4.242;2024-02-21T07:56:20;21.42;;;9.25;;
36691;SDS011;22678;52.052;4.242;2024-02-21T07:58:46;18.63;;;10.25;;
36691;SDS011;22678;52.052;4.242;2024-02-21T08:01:11;17.63;;;8.90;;
36691;SDS011;22678;52.052;4.242;2024-02-21T08:03:36;14.32;;;6.38;;
36691;SDS011;22678;52.052;4.242;2024-02-21T08:06:02;14.70;;;6.95;;
36691;SDS011;22678;52.052;4.242;2024-02-21T08:08:28;16.35;;;7.43;;
36691;SDS011;22678;52.052;4.242;2024-02-21T08:10:53;20.55;;;7.38;;
36691;SDS011;22678;52.052;4.242;2024-02-21T08:13:19;16.27;;;7.93;;
36691;SDS011;22678;52.052;4.242;2024-02-21T08:15:44;19.50;;;7.03;;
36691;SDS011;22678;52.052;4.242;2024-02-21T08:18:09;21.02;;;8.05;;
36691;SDS011;22678;52.052;4.242;2024-02-21T08:20:35;18.75;;;9.02;;
36691;SDS011;22678;52.052;4.242;2024-02-21T08:23:00;14.15;;;6.68;;
36691;SDS011;22678;52.052;4.242;2024-02-21T08:25:26;16.48;;;9.07;;
36691;SDS011;22678;52.052;4.242;2024-02-21T08:27:53;13.38;;;7.38;;
36691;SDS011;22678;52.052;4.242;2024-02-21T08:30:22;19.33;;;7.15;;
36691;SDS011;22678;52.052;4.242;2024-02-21T08:32:48;16.75;;;9.43;;
36691;SDS011;22678;52.052;4.242;2024-02-21T08:35:13;12.30;;;7.35;;
36691;SDS011;22678;52.052;4.242;2024-02-21T08:37:38;16.50;;;7.30;;
36691;SDS011;22678;52.052;4.242;2024-02-21T08:40:04;12.10;;;6.53;;
36691;SDS011;22678;52.052;4.242;2024-02-21T08:42:33;16.70;;;6.80;;
36691;SDS011;22678;52.052;4.242;2024-02-21T08:45:02;24.48;;;10.70;;
36691;SDS011;22678;52.052;4.242;2024-02-21T08:47:28;18.85;;;9.05;;
36691;SDS011;22678;52.052;4.242;2024-02-21T08:49:53;14.48;;;7.45;;
36691;SDS011;22678;52.052;4.242;2024-02-21T08:52:19;17.17;;;8.15;;
36691;SDS011;22678;52.052;4.242;2024-02-21T08:54:44;14.05;;;7.47;;
36691;SDS011;22678;52.052;4.242;2024-02-21T08:57:09;15.20;;;8.75;;
36691;SDS011;22678;52.052;4.242;2024-02-21T08:59:35;12.07;;;6.85;;
36691;SDS011;22678;52.052;4.242;2024-02-21T09:02:00;25.45;;;8.68;;
36691;SDS011;22678;52.052;4.242;2024-02-21T09:04:25;15.25;;;6.88;;
36691;SDS011;22678;52.052;4.242;2024-02-21T09:06:50;15.57;;;7.32;;
36691;SDS011;22678;52.052;4.242;2024-02-21T09:09:17;13.05;;;6.40;;
36691;SDS011;22678;52.052;4.242;2024-02-21T09:11:42;22.00;;;8.50;;
36691;SDS011;22678;52.052;4.242;2024-02-21T09:14:08;17.13;;;8.65;;
36691;SDS011;22678;52.052;4.242;2024-02-21T09:16:33;11.65;;;7.65;;
36691;SDS011;22678;52.052;4.242;2024-02-21T09:18:59;15.10;;;8.43;;
36691;SDS011;22678;52.052;4.242;2024-02-21T09:21:25;11.95;;;6.90;;
36691;SDS011;22678;52.052;4.242;2024-02-21T09:23:50;21.45;;;7.82;;
36691;SDS011;22678;52.052;4.242;2024-02-21T09:26:16;12.35;;;5.68;;
36691;SDS011;22678;52.052;4.242;2024-02-21T09:28:42;14.07;;;7.30;;
36691;SDS011;22678;52.052;4.242;2024-02-21T09:31:08;13.20;;;7.05;;
36691;SDS011;22678;52.052;4.242;2024-02-21T09:33:33;14.90;;;7.22;;
36691;SDS011;22678;52.052;4.242;2024-02-21T09:35:59;15.50;;;8.02;;
36691;SDS011;22678;52.052;4.242;2024-02-21T09:38:25;13.80;;;7.32;;
36691;SDS011;22678;52.052;4.242;2024-02-21T09:40:55;12.77;;;5.80;;
36691;SDS011;22678;52.052;4.242;2024-02-21T09:43:25;8.80;;;6.50;;
36691;SDS011;22678;52.052;4.242;2024-02-21T09:45:51;18.55;;;6.82;;
36691;SDS011;22678;52.052;4.242;2024-02-21T09:48:25;15.05;;;5.88;;
36691;SDS011;22678;52.052;4.242;2024-02-21T09:50:56;19.10;;;7.32;;
36691;SDS011;22678;52.052;4.242;2024-02-21T09:53:24;18.17;;;7.32;;
36691;SDS011;22678;52.052;4.242;2024-02-21T09:55:50;17.80;;;6.53;;
36691;SDS011;22678;52.052;4.242;2024-02-21T09:58:16;11.68;;;7.22;;
36691;SDS011;22678;52.052;4.242;2024-02-21T10:00:41;12.80;;;6.80;;
36691;SDS011;22678;52.052;4.242;2024-02-21T10:03:06;14.35;;;7.18;;
36691;SDS011;22678;52.052;4.242;2024-02-21T10:05:33;13.07;;;6.93;;
36691;SDS011;22678;52.052;4.242;2024-02-21T10:08:03;17.55;;;6.95;;
36691;SDS011;22678;52.052;4.242;2024-02-21T10:10:29;11.60;;;7.03;;
36691;SDS011;22678;52.052;4.242;2024-02-21T10:12:55;16.65;;;7.82;;
36691;SDS011;22678;52.052;4.242;2024-02-21T10:15:21;15.95;;;7.93;;
36691;SDS011;22678;52.052;4.242;2024-02-21T10:17:48;14.35;;;8.20;;
36691;SDS011;22678;52.052;4.242;2024-02-21T10:20:14;16.33;;;8.25;;
36691;SDS011;22678;52.052;4.242;2024-02-21T10:22:40;16.48;;;8.23;;
36691;SDS011;22678;52.052;4.242;2024-02-21T10:25:09;14.02;;;7.60;;
36691;SDS011;22678;52.052;4.242;2024-02-21T10:27:36;14.02;;;8.43;;
36691;SDS011;22678;52.052;4.242;2024-02-21T10:30:02;13.18;;;8.20;;
36691;SDS011;22678;52.052;4.242;2024-02-21T10:32:27;15.70;;;9.27;;
36691;SDS011;22678;52.052;4.242;2024-02-21T10:35:00;17.65;;;9.27;;
36691;SDS011;22678;52.052;4.242;2024-02-21T10:37:29;18.02;;;8.98;;
36691;SDS011;22678;52.052;4.242;2024-02-21T10:39:55;14.02;;;7.43;;
36691;SDS011;22678;52.052;4.242;2024-02-21T10:42:21;15.65;;;8.75;;
36691;SDS011;22678;52.052;4.242;2024-02-21T10:44:46;16.00;;;8.07;;
36691;SDS011;22678;52.052;4.242;2024-02-21T10:47:16;14.35;;;9.23;;
36691;SDS011;22678;52.052;4.242;2024-02-21T10:49:46;14.25;;;8.57;;
36691;SDS011;22678;52.052;4.242;2024-02-21T10:55:04;19.63;;;9.35;;
36691;SDS011;22678;52.052;4.242;2024-02-21T10:57:33;20.08;;;8.18;;
36691;SDS011;22678;52.052;4.242;2024-02-21T10:59:59;14.77;;;9.90;;
36691;SDS011;22678;52.052;4.242;2024-02-21T11:02:27;15.65;;;8.05;;
36691;SDS011;22678;52.052;4.242;2024-02-21T11:04:55;15.82;;;8.20;;
36691;SDS011;22678;52.052;4.242;2024-02-21T11:07:22;15.80;;;8.35;;
36691;SDS011;22678;52.052;4.242;2024-02-21T11:09:51;14.45;;;7.45;;
36691;SDS011;22678;52.052;4.242;2024-02-21T11:12:20;14.23;;;9.00;;
36691;SDS011;22678;52.052;4.242;2024-02-21T11:14:46;10.95;;;7.65;;
36691;SDS011;22678;52.052;4.242;2024-02-21T11:17:18;15.60;;;8.75;;
36691;SDS011;22678;52.052;4.242;2024-02-21T11:19:46;14.32;;;6.90;;
36691;SDS011;22678;52.052;4.242;2024-02-21T11:22:18;11.50;;;7.22;;
36691;SDS011;22678;52.052;4.242;2024-02-21T11:24:46;12.23;;;6.88;;
36691;SDS011;22678;52.052;4.242;2024-02-21T11:27:12;12.73;;;7.55;;
36691;SDS011;22678;52.052;4.242;2024-02-21T11:29:45;12.90;;;8.50;;
36691;SDS011;22678;52.052;4.242;2024-02-21T11:32:17;17.48;;;9.32;;
36691;SDS011;22678;52.052;4.242;2024-02-21T11:34:57;16.67;;;7.30;;
36691;SDS011;22678;52.052;4.242;2024-02-21T11:37:28;13.38;;;7.18;;
36691;SDS011;22678;52.052;4.242;2024-02-21T11:39:54;18.08;;;7.82;;
36691;SDS011;22678;52.052;4.242;2024-02-21T11:42:20;14.85;;;6.85;;
36691;SDS011;22678;52.052;4.242;2024-02-21T11:44:46;16.10;;;6.28;;
36691;SDS011;22678;52.052;4.242;2024-02-21T11:47:11;14.13;;;6.82;;
36691;SDS011;22678;52.052;4.242;2024-02-21T11:49:42;11.05;;;6.75;;
36691;SDS011;22678;52.052;4.242;2024-02-21T11:52:12;11.65;;;5.30;;
36691;SDS011;22678;52.052;4.242;2024-02-21T11:54:40;14.27;;;6.50;;
36691;SDS011;22678;52.052;4.242;2024-02-21T11:57:06;13.40;;;6.53;;
36691;SDS011;22678;52.052;4.242;2024-02-21T11:59:31;12.45;;;8.65;;
36691;SDS011;22678;52.052;4.242;2024-02-21T12:01:58;18.88;;;7.35;;
36691;SDS011;22678;52.052;4.242;2024-02-21T12:04:24;15.18;;;9.10;;
36691;SDS011;22678;52.052;4.242;2024-02-21T12:06:50;11.85;;;5.22;;
36691;SDS011;22678;52.052;4.242;2024-02-21T12:09:17;10.77;;;5.82;;
36691;SDS011;22678;52.052;4.242;2024-02-21T12:11:43;9.35;;;4.85;;
36691;SDS011;22678;52.052;4.242;2024-02-21T12:14:09;10.23;;;5.80;;
36691;SDS011;22678;52.052;4.242;2024-02-21T12:16:34;10.35;;;4.78;;
36691;SDS011;22678;52.052;4.242;2024-02-21T12:19:03;13.45;;;5.93;;
36691;SDS011;22678;52.052;4.242;2024-02-21T12:21:32;8.85;;;4.75;;
36691;SDS011;22678;52.052;4.242;2024-02-21T12:26:45;12.50;;;4.70;;
36691;SDS011;22678;52.052;4.242;2024-02-21T12:29:11;8.68;;;5.03;;
36691;SDS011;22678;52.052;4.242;2024-02-21T12:31:37;12.15;;;5.50;;
36691;SDS011;22678;52.052;4.242;2024-02-21T12:34:03;16.17;;;4.78;;
36691;SDS011;22678;52.052;4.242;2024-02-21T12:36:29;9.20;;;3.13;;
36691;SDS011;22678;52.052;4.242;2024-02-21T12:38:54;10.52;;;4.50;;
36691;SDS011;22678;52.052;4.242;2024-02-21T12:41:20;11.35;;;4.45;;
36691;SDS011;22678;52.052;4.242;2024-02-21T12:43:45;10.38;;;4.00;;
36691;SDS011;22678;52.052;4.242;2024-02-21T12:46:11;6.30;;;4.40;;
36691;SDS011;22678;52.052;4.242;2024-02-21T12:48:36;8.40;;;3.22;;
36691;SDS011;22678;52.052;4.242;2024-02-21T12:51:01;8.38;;;4.03;;
36691;SDS011;22678;52.052;4.242;2024-02-21T12:53:27;9.73;;;4.60;;
36691;SDS011;22678;52.052;4.242;2024-02-21T12:55:52;9.05;;;3.60;;
36691;SDS011;22678;52.052;4.242;2024-02-21T12:58:18;7.70;;;4.38;;
36691;SDS011;22678;52.052;4.242;2024-02-21T13:00:43;7.78;;;4.90;;
36691;SDS011;22678;52.052;4.242;2024-02-21T13:03:09;11.20;;;5.15;;
36691;SDS011;22678;52.052;4.242;2024-02-21T13:05:35;6.53;;;4.32;;
36691;SDS011;22678;52.052;4.242;2024-02-21T13:08:01;10.40;;;4.55;;
36691;SDS011;22678;52.052;4.242;2024-02-21T13:10:26;7.10;;;3.88;;
36691;SDS011;22678;52.052;4.242;2024-02-21T13:12:51;9.20;;;3.60;;
36691;SDS011;22678;52.052;4.242;2024-02-21T13:15:17;8.65;;;3.42;;
36691;SDS011;22678;52.052;4.242;2024-02-21T13:17:45;8.13;;;3.55;;
36691;SDS011;22678;52.052;4.242;2024-02-21T13:20:11;9.52;;;6.03;;
36691;SDS011;22678;52.052;4.242;2024-02-21T13:22:37;14.45;;;3.67;;
36691;SDS011;22678;52.052;4.242;2024-02-21T13:25:02;11.60;;;3.83;;
36691;SDS011;22678;52.052;4.242;2024-02-21T13:27:28;7.43;;;4.38;;
36691;SDS011;22678;52.052;4.242;2024-02-21T13:29:54;10.93;;;4.07;;
36691;SDS011;22678;52.052;4.242;2024-02-21T13:32:19;9.77;;;3.97;;
36691;SDS011;22678;52.052;4.242;2024-02-21T13:34:44;12.10;;;6.32;;
36691;SDS011;22678;52.052;4.242;2024-02-21T13:37:10;9.88;;;5.43;;
36691;SDS011;22678;52.052;4.242;2024-02-21T13:39:36;9.73;;;4.28;;
36691;SDS011;22678;52.052;4.242;2024-02-21T13:42:02;11.93;;;3.60;;
36691;SDS011;22678;52.052;4.242;2024-02-21T13:44:30;9.88;;;5.43;;
36691;SDS011;22678;52.052;4.242;2024-02-21T13:46:56;9.63;;;3.97;;
36691;SDS011;22678;52.052;4.242;2024-02-21T13:49:21;6.60;;;3.88;;
36691;SDS011;22678;52.052;4.242;2024-02-21T13:51:46;9.05;;;5.40;;
36691;SDS011;22678;52.052;4.242;2024-02-21T13:54:12;12.38;;;4.57;;
36691;SDS011;22678;52.052;4.242;2024-02-21T13:56:39;7.93;;;4.55;;
36691;SDS011;22678;52.052;4.242;2024-02-21T13:59:04;10.50;;;6.28;;
36691;SDS011;22678;52.052;4.242;2024-02-21T14:01:30;10.48;;;7.28;;
36691;SDS011;22678;52.052;4.242;2024-02-21T14:03:57;13.10;;;7.47;;
36691;SDS011;22678;52.052;4.242;2024-02-21T14:06:22;12.52;;;7.45;;
36691;SDS011;22678;52.052;4.242;2024-02-21T14:08:47;10.23;;;7.20;;
36691;SDS011;22678;52.052;4.242;2024-02-21T14:11:13;14.52;;;8.63;;
36691;SDS011;22678;52.052;4.242;2024-02-21T14:13:39;15.80;;;8.60;;
36691;SDS011;22678;52.052;4.242;2024-02-21T14:16:09;16.73;;;8.70;;
36691;SDS011;22678;52.052;4.242;2024-02-21T14:18:36;12.80;;;8.73;;
36691;SDS011;22678;52.052;4.242;2024-02-21T14:21:03;26.52;;;10.00;;
36691;SDS011;22678;52.052;4.242;2024-02-21T14:23:31;18.98;;;9.80;;
36691;SDS011;22678;52.052;4.242;2024-02-21T14:25:58;11.70;;;8.27;;
36691;SDS011;22678;52.052;4.242;2024-02-21T14:28:23;17.95;;;9.20;;
36691;SDS011;22678;52.052;4.242;2024-02-21T14:30:49;13.20;;;8.23;;
36691;SDS011;22678;52.052;4.242;2024-02-21T14:33:18;13.02;;;7.05;;
36691;SDS011;22678;52.052;4.242;2024-02-21T14:35:44;16.25;;;7.95;;
36691;SDS011;22678;52.052;4.242;2024-02-21T14:38:09;13.95;;;7.10;;
36691;SDS011;22678;52.052;4.242;2024-02-21T14:40:34;11.25;;;6.85;;
36691;SDS011;22678;52.052;4.242;2024-02-21T14:42:59;13.57;;;7.68;;